sensor_id;sensor_type;location;lat;lon;timestamp;P1;durP1;ratioP1;P2;durP2;ratioP2
10412;SDS011;5252;42.602;23.386;2022-08-05T00:01:01;3.00;;;2.75;;
10412;SDS011;5252;42.602;23.386;2022-08-05T00:03:28;3.47;;;3.15;;
10412;SDS011;5252;42.602;23.386;2022-08-05T00:05:55;2.90;;;2.70;;
10412;SDS011;5252;42.602;23.386;2022-08-05T00:08:21;3.40;;;2.92;;
10412;SDS011;5252;42.602;23.386;2022-08-05T00:10:48;3.55;;;3.25;;
10412;SDS011;5252;42.602;23.386;2022-08-05T00:13:14;3.08;;;2.78;;
10412;SDS011;5252;42.602;23.386;2022-08-05T00:15:42;3.40;;;2.85;;
10412;SDS011;5252;42.602;23.386;2022-08-05T00:18:09;3.20;;;3.00;;
10412;SDS011;5252;42.602;23.386;2022-08-05T00:20:35;3.33;;;2.67;;
10412;SDS011;5252;42.602;23.386;2022-08-05T00:23:02;3.20;;;2.90;;
10412;SDS011;5252;42.602;23.386;2022-08-05T00:25:28;3.33;;;3.13;;
10412;SDS011;5252;42.602;23.386;2022-08-05T00:27:55;3.33;;;3.05;;
10412;SDS011;5252;42.602;23.386;2022-08-05T00:30:22;3.33;;;3.03;;
10412;SDS011;5252;42.602;23.386;2022-08-05T00:32:50;3.95;;;3.25;;
10412;SDS011;5252;42.602;23.386;2022-08-05T00:35:16;3.60;;;3.30;;
10412;SDS011;5252;42.602;23.386;2022-08-05T00:37:43;3.70;;;3.35;;
10412;SDS011;5252;42.602;23.386;2022-08-05T00:40:09;3.47;;;3.08;;
10412;SDS011;5252;42.602;23.386;2022-08-05T00:42:36;4.38;;;3.20;;
10412;SDS011;5252;42.602;23.386;2022-08-05T00:45:04;3.65;;;3.35;;
10412;SDS011;5252;42.602;23.386;2022-08-05T00:47:31;4.05;;;3.40;;
10412;SDS011;5252;42.602;23.386;2022-08-05T00:49:59;4.03;;;3.08;;
10412;SDS011;5252;42.602;23.386;2022-08-05T00:52:26;3.22;;;3.03;;
10412;SDS011;5252;42.602;23.386;2022-08-05T00:54:52;6.15;;;3.38;;
10412;SDS011;5252;42.602;23.386;2022-08-05T00:57:19;3.13;;;2.92;;
10412;SDS011;5252;42.602;23.386;2022-08-05T00:59:46;3.35;;;3.15;;
10412;SDS011;5252;42.602;23.386;2022-08-05T01:02:13;3.25;;;3.05;;
10412;SDS011;5252;42.602;23.386;2022-08-05T01:04:40;3.88;;;3.47;;
10412;SDS011;5252;42.602;23.386;2022-08-05T01:07:08;3.50;;;3.20;;
10412;SDS011;5252;42.602;23.386;2022-08-05T01:09:34;3.70;;;3.40;;
10412;SDS011;5252;42.602;23.386;2022-08-05T01:12:01;3.50;;;3.20;;
10412;SDS011;5252;42.602;23.386;2022-08-05T01:14:30;3.80;;;3.50;;
10412;SDS011;5252;42.602;23.386;2022-08-05T01:16:59;3.60;;;3.30;;
10412;SDS011;5252;42.602;23.386;2022-08-05T01:19:32;3.55;;;3.25;;
10412;SDS011;5252;42.602;23.386;2022-08-05T01:22:05;3.55;;;3.25;;
10412;SDS011;5252;42.602;23.386;2022-08-05T01:27:28;3.90;;;3.55;;
10412;SDS011;5252;42.602;23.386;2022-08-05T01:30:00;4.07;;;3.63;;
10412;SDS011;5252;42.602;23.386;2022-08-05T01:32:27;3.70;;;3.30;;
10412;SDS011;5252;42.602;23.386;2022-08-05T01:34:57;3.80;;;3.50;;
10412;SDS011;5252;42.602;23.386;2022-08-05T01:37:25;4.00;;;3.60;;
10412;SDS011;5252;42.602;23.386;2022-08-05T01:39:55;4.13;;;3.80;;
10412;SDS011;5252;42.602;23.386;2022-08-05T01:42:22;3.92;;;3.63;;
10412;SDS011;5252;42.602;23.386;2022-08-05T01:44:49;4.40;;;4.10;;
10412;SDS011;5252;42.602;23.386;2022-08-05T01:47:18;5.53;;;3.90;;
10412;SDS011;5252;42.602;23.386;2022-08-05T01:49:45;4.40;;;3.30;;
10412;SDS011;5252;42.602;23.386;2022-08-05T01:52:14;4.53;;;3.30;;
10412;SDS011;5252;42.602;23.386;2022-08-05T01:54:43;4.00;;;3.70;;
10412;SDS011;5252;42.602;23.386;2022-08-05T01:57:10;3.88;;;3.58;;
10412;SDS011;5252;42.602;23.386;2022-08-05T01:59:37;4.00;;;3.70;;
10412;SDS011;5252;42.602;23.386;2022-08-05T02:02:05;3.80;;;3.50;;
10412;SDS011;5252;42.602;23.386;2022-08-05T02:04:34;3.97;;;3.67;;
10412;SDS011;5252;42.602;23.386;2022-08-05T02:07:02;4.15;;;3.85;;
10412;SDS011;5252;42.602;23.386;2022-08-05T02:09:28;4.03;;;3.72;;
10412;SDS011;5252;42.602;23.386;2022-08-05T02:11:57;3.88;;;3.58;;
10412;SDS011;5252;42.602;23.386;2022-08-05T02:14:27;3.95;;;3.50;;
10412;SDS011;5252;42.602;23.386;2022-08-05T02:16:56;3.90;;;3.60;;
10412;SDS011;5252;42.602;23.386;2022-08-05T02:19:29;3.92;;;3.60;;
10412;SDS011;5252;42.602;23.386;2022-08-05T02:21:58;4.32;;;3.60;;
10412;SDS011;5252;42.602;23.386;2022-08-05T02:24:29;4.53;;;4.07;;
10412;SDS011;5252;42.602;23.386;2022-08-05T02:26:58;4.50;;;4.15;;
10412;SDS011;5252;42.602;23.386;2022-08-05T02:29:27;4.50;;;4.10;;
10412;SDS011;5252;42.602;23.386;2022-08-05T02:31:54;4.10;;;3.78;;
10412;SDS011;5252;42.602;23.386;2022-08-05T02:34:23;3.92;;;3.60;;
10412;SDS011;5252;42.602;23.386;2022-08-05T02:36:50;4.05;;;3.75;;
10412;SDS011;5252;42.602;23.386;2022-08-05T02:39:20;4.43;;;4.07;;
10412;SDS011;5252;42.602;23.386;2022-08-05T02:41:47;5.07;;;4.00;;
10412;SDS011;5252;42.602;23.386;2022-08-05T02:44:14;3.65;;;3.40;;
10412;SDS011;5252;42.602;23.386;2022-08-05T02:46:42;4.18;;;3.85;;
10412;SDS011;5252;42.602;23.386;2022-08-05T02:49:09;4.70;;;4.28;;
10412;SDS011;5252;42.602;23.386;2022-08-05T02:51:38;4.13;;;3.83;;
10412;SDS011;5252;42.602;23.386;2022-08-05T02:54:05;4.22;;;3.92;;
10412;SDS011;5252;42.602;23.386;2022-08-05T02:56:33;4.50;;;3.80;;
10412;SDS011;5252;42.602;23.386;2022-08-05T02:59:00;3.75;;;3.40;;
10412;SDS011;5252;42.602;23.386;2022-08-05T03:01:28;4.15;;;3.80;;
10412;SDS011;5252;42.602;23.386;2022-08-05T03:03:57;4.25;;;3.85;;
10412;SDS011;5252;42.602;23.386;2022-08-05T03:06:24;4.03;;;3.65;;
10412;SDS011;5252;42.602;23.386;2022-08-05T03:08:52;4.35;;;3.97;;
10412;SDS011;5252;42.602;23.386;2022-08-05T03:11:19;4.47;;;3.78;;
10412;SDS011;5252;42.602;23.386;2022-08-05T03:13:47;3.80;;;3.60;;
10412;SDS011;5252;42.602;23.386;2022-08-05T03:16:14;4.13;;;3.83;;
10412;SDS011;5252;42.602;23.386;2022-08-05T03:18:40;4.30;;;4.00;;
10412;SDS011;5252;42.602;23.386;2022-08-05T03:21:07;3.97;;;3.67;;
10412;SDS011;5252;42.602;23.386;2022-08-05T03:23:34;4.53;;;4.20;;
10412;SDS011;5252;42.602;23.386;2022-08-05T03:26:01;4.15;;;3.85;;
10412;SDS011;5252;42.602;23.386;2022-08-05T03:28:28;4.28;;;3.97;;
10412;SDS011;5252;42.602;23.386;2022-08-05T03:30:57;4.10;;;3.80;;
10412;SDS011;5252;42.602;23.386;2022-08-05T03:33:24;4.50;;;4.07;;
10412;SDS011;5252;42.602;23.386;2022-08-05T03:35:52;4.00;;;3.70;;
10412;SDS011;5252;42.602;23.386;2022-08-05T03:38:21;4.05;;;3.75;;
10412;SDS011;5252;42.602;23.386;2022-08-05T03:40:47;4.05;;;3.70;;
10412;SDS011;5252;42.602;23.386;2022-08-05T03:43:14;4.07;;;3.67;;
10412;SDS011;5252;42.602;23.386;2022-08-05T03:45:41;4.53;;;4.13;;
10412;SDS011;5252;42.602;23.386;2022-08-05T03:48:09;4.05;;;3.75;;
10412;SDS011;5252;42.602;23.386;2022-08-05T03:50:40;4.68;;;4.28;;
10412;SDS011;5252;42.602;23.386;2022-08-05T03:53:09;4.70;;;4.30;;
10412;SDS011;5252;42.602;23.386;2022-08-05T03:55:38;5.32;;;4.07;;
10412;SDS011;5252;42.602;23.386;2022-08-05T03:58:06;4.38;;;4.07;;
10412;SDS011;5252;42.602;23.386;2022-08-05T04:00:34;4.43;;;4.03;;
10412;SDS011;5252;42.602;23.386;2022-08-05T04:03:02;4.47;;;4.07;;
10412;SDS011;5252;42.602;23.386;2022-08-05T04:05:32;4.53;;;4.13;;
10412;SDS011;5252;42.602;23.386;2022-08-05T04:08:00;4.45;;;4.15;;
10412;SDS011;5252;42.602;23.386;2022-08-05T04:10:27;4.20;;;3.90;;
10412;SDS011;5252;42.602;23.386;2022-08-05T04:12:54;4.25;;;3.95;;
10412;SDS011;5252;42.602;23.386;2022-08-05T04:15:20;4.05;;;3.75;;
10412;SDS011;5252;42.602;23.386;2022-08-05T04:17:47;4.65;;;4.25;;
10412;SDS011;5252;42.602;23.386;2022-08-05T04:20:17;4.10;;;3.78;;
10412;SDS011;5252;42.602;23.386;2022-08-05T04:22:46;5.15;;;4.13;;
10412;SDS011;5252;42.602;23.386;2022-08-05T04:25:13;4.82;;;4.00;;
10412;SDS011;5252;42.602;23.386;2022-08-05T04:27:39;4.45;;;4.15;;
10412;SDS011;5252;42.602;23.386;2022-08-05T04:30:06;4.80;;;4.28;;
10412;SDS011;5252;42.602;23.386;2022-08-05T04:32:33;4.40;;;4.00;;
10412;SDS011;5252;42.602;23.386;2022-08-05T04:35:00;4.70;;;3.90;;
10412;SDS011;5252;42.602;23.386;2022-08-05T04:37:26;4.65;;;4.25;;
10412;SDS011;5252;42.602;23.386;2022-08-05T04:39:54;5.20;;;4.03;;
10412;SDS011;5252;42.602;23.386;2022-08-05T04:42:21;4.50;;;3.97;;
10412;SDS011;5252;42.602;23.386;2022-08-05T04:44:48;4.10;;;3.75;;
10412;SDS011;5252;42.602;23.386;2022-08-05T04:47:14;4.32;;;3.85;;
10412;SDS011;5252;42.602;23.386;2022-08-05T04:49:41;4.20;;;3.90;;
10412;SDS011;5252;42.602;23.386;2022-08-05T04:52:07;4.22;;;3.83;;
10412;SDS011;5252;42.602;23.386;2022-08-05T04:54:34;4.85;;;4.38;;
10412;SDS011;5252;42.602;23.386;2022-08-05T04:57:02;4.18;;;3.80;;
10412;SDS011;5252;42.602;23.386;2022-08-05T04:59:28;4.95;;;4.03;;
10412;SDS011;5252;42.602;23.386;2022-08-05T05:01:55;4.85;;;4.40;;
10412;SDS011;5252;42.602;23.386;2022-08-05T05:04:22;5.85;;;4.30;;
10412;SDS011;5252;42.602;23.386;2022-08-05T05:06:49;4.60;;;4.13;;
10412;SDS011;5252;42.602;23.386;2022-08-05T05:09:16;5.30;;;4.50;;
10412;SDS011;5252;42.602;23.386;2022-08-05T05:11:42;4.82;;;4.38;;
10412;SDS011;5252;42.602;23.386;2022-08-05T05:14:10;5.03;;;4.30;;
10412;SDS011;5252;42.602;23.386;2022-08-05T05:16:37;3.90;;;3.60;;
10412;SDS011;5252;42.602;23.386;2022-08-05T05:19:03;4.68;;;4.13;;
10412;SDS011;5252;42.602;23.386;2022-08-05T05:21:30;5.45;;;3.92;;
10412;SDS011;5252;42.602;23.386;2022-08-05T05:23:56;5.15;;;4.22;;
10412;SDS011;5252;42.602;23.386;2022-08-05T05:26:23;4.47;;;4.00;;
10412;SDS011;5252;42.602;23.386;2022-08-05T05:28:49;4.60;;;4.10;;
10412;SDS011;5252;42.602;23.386;2022-08-05T05:31:17;4.18;;;3.78;;
10412;SDS011;5252;42.602;23.386;2022-08-05T05:33:44;5.00;;;4.47;;
10412;SDS011;5252;42.602;23.386;2022-08-05T05:36:11;4.75;;;4.35;;
10412;SDS011;5252;42.602;23.386;2022-08-05T05:38:37;5.72;;;4.55;;
10412;SDS011;5252;42.602;23.386;2022-08-05T05:41:04;4.57;;;4.20;;
10412;SDS011;5252;42.602;23.386;2022-08-05T05:43:30;4.55;;;4.15;;
10412;SDS011;5252;42.602;23.386;2022-08-05T05:45:57;4.80;;;4.40;;
10412;SDS011;5252;42.602;23.386;2022-08-05T05:48:25;5.00;;;4.60;;
10412;SDS011;5252;42.602;23.386;2022-08-05T05:50:51;5.15;;;4.75;;
10412;SDS011;5252;42.602;23.386;2022-08-05T05:53:18;5.40;;;4.57;;
10412;SDS011;5252;42.602;23.386;2022-08-05T05:55:44;8.02;;;4.82;;
10412;SDS011;5252;42.602;23.386;2022-08-05T05:58:11;4.90;;;4.50;;
10412;SDS011;5252;42.602;23.386;2022-08-05T06:00:38;4.57;;;4.15;;
10412;SDS011;5252;42.602;23.386;2022-08-05T06:03:04;5.95;;;4.30;;
10412;SDS011;5252;42.602;23.386;2022-08-05T06:05:32;4.70;;;4.30;;
10412;SDS011;5252;42.602;23.386;2022-08-05T06:07:59;4.57;;;4.15;;
10412;SDS011;5252;42.602;23.386;2022-08-05T06:10:25;5.05;;;4.65;;
10412;SDS011;5252;42.602;23.386;2022-08-05T06:12:52;4.93;;;4.50;;
10412;SDS011;5252;42.602;23.386;2022-08-05T06:15:18;5.75;;;4.45;;
10412;SDS011;5252;42.602;23.386;2022-08-05T06:17:45;5.00;;;4.60;;
10412;SDS011;5252;42.602;23.386;2022-08-05T06:20:12;4.85;;;4.35;;
10412;SDS011;5252;42.602;23.386;2022-08-05T06:22:40;5.03;;;4.63;;
10412;SDS011;5252;42.602;23.386;2022-08-05T06:25:06;4.80;;;4.40;;
10412;SDS011;5252;42.602;23.386;2022-08-05T06:27:33;4.93;;;4.40;;
10412;SDS011;5252;42.602;23.386;2022-08-05T06:30:00;4.72;;;4.20;;
10412;SDS011;5252;42.602;23.386;2022-08-05T06:32:26;4.85;;;4.35;;
10412;SDS011;5252;42.602;23.386;2022-08-05T06:34:53;4.53;;;4.13;;
10412;SDS011;5252;42.602;23.386;2022-08-05T06:37:19;4.20;;;3.90;;
10412;SDS011;5252;42.602;23.386;2022-08-05T06:39:47;5.10;;;4.57;;
10412;SDS011;5252;42.602;23.386;2022-08-05T06:42:14;5.93;;;4.38;;
10412;SDS011;5252;42.602;23.386;2022-08-05T06:44:41;4.97;;;4.55;;
10412;SDS011;5252;42.602;23.386;2022-08-05T06:47:07;5.15;;;4.65;;
10412;SDS011;5252;42.602;23.386;2022-08-05T06:49:34;7.10;;;4.53;;
10412;SDS011;5252;42.602;23.386;2022-08-05T06:52:02;6.50;;;4.18;;
10412;SDS011;5252;42.602;23.386;2022-08-05T06:54:29;5.32;;;4.82;;
10412;SDS011;5252;42.602;23.386;2022-08-05T06:56:57;4.93;;;4.53;;
10412;SDS011;5252;42.602;23.386;2022-08-05T06:59:23;8.40;;;3.85;;
10412;SDS011;5252;42.602;23.386;2022-08-05T07:01:50;4.07;;;3.70;;
10412;SDS011;5252;42.602;23.386;2022-08-05T07:04:16;4.68;;;3.60;;
10412;SDS011;5252;42.602;23.386;2022-08-05T07:06:43;4.35;;;3.88;;
10412;SDS011;5252;42.602;23.386;2022-08-05T07:09:10;4.07;;;3.70;;
10412;SDS011;5252;42.602;23.386;2022-08-05T07:11:36;4.45;;;3.92;;
10412;SDS011;5252;42.602;23.386;2022-08-05T07:14:04;4.78;;;4.13;;
10412;SDS011;5252;42.602;23.386;2022-08-05T07:16:48;5.32;;;3.78;;
10412;SDS011;5252;42.602;23.386;2022-08-05T07:19:15;4.00;;;3.60;;
10412;SDS011;5252;42.602;23.386;2022-08-05T07:21:41;4.65;;;3.60;;
10412;SDS011;5252;42.602;23.386;2022-08-05T07:24:08;3.92;;;3.63;;
10412;SDS011;5252;42.602;23.386;2022-08-05T07:26:35;4.05;;;3.40;;
10412;SDS011;5252;42.602;23.386;2022-08-05T07:29:01;4.10;;;3.80;;
10412;SDS011;5252;42.602;23.386;2022-08-05T07:31:29;4.28;;;3.88;;
10412;SDS011;5252;42.602;23.386;2022-08-05T07:33:56;3.80;;;3.45;;
10412;SDS011;5252;42.602;23.386;2022-08-05T07:36:22;3.97;;;3.58;;
10412;SDS011;5252;42.602;23.386;2022-08-05T07:38:49;5.57;;;4.00;;
10412;SDS011;5252;42.602;23.386;2022-08-05T07:41:17;4.18;;;3.88;;
10412;SDS011;5252;42.602;23.386;2022-08-05T07:43:43;4.60;;;3.92;;
10412;SDS011;5252;42.602;23.386;2022-08-05T07:46:10;3.70;;;3.40;;
10412;SDS011;5252;42.602;23.386;2022-08-05T07:48:38;4.75;;;3.70;;
10412;SDS011;5252;42.602;23.386;2022-08-05T07:51:05;4.60;;;3.50;;
10412;SDS011;5252;42.602;23.386;2022-08-05T07:53:31;4.20;;;3.80;;
10412;SDS011;5252;42.602;23.386;2022-08-05T07:56:00;4.55;;;3.83;;
10412;SDS011;5252;42.602;23.386;2022-08-05T07:58:27;4.45;;;3.55;;
10412;SDS011;5252;42.602;23.386;2022-08-05T08:00:53;4.63;;;4.22;;
10412;SDS011;5252;42.602;23.386;2022-08-05T08:03:20;4.72;;;3.90;;
10412;SDS011;5252;42.602;23.386;2022-08-05T08:05:48;4.32;;;3.92;;
10412;SDS011;5252;42.602;23.386;2022-08-05T08:08:16;3.80;;;3.50;;
10412;SDS011;5252;42.602;23.386;2022-08-05T08:10:43;5.30;;;3.15;;
10412;SDS011;5252;42.602;23.386;2022-08-05T08:13:10;3.83;;;3.53;;
10412;SDS011;5252;42.602;23.386;2022-08-05T08:15:36;4.63;;;3.35;;
10412;SDS011;5252;42.602;23.386;2022-08-05T08:18:03;4.57;;;3.50;;
10412;SDS011;5252;42.602;23.386;2022-08-05T08:20:29;3.78;;;3.47;;
10412;SDS011;5252;42.602;23.386;2022-08-05T08:22:58;4.18;;;3.55;;
10412;SDS011;5252;42.602;23.386;2022-08-05T08:25:25;5.72;;;3.60;;
10412;SDS011;5252;42.602;23.386;2022-08-05T08:27:52;4.10;;;3.70;;
10412;SDS011;5252;42.602;23.386;2022-08-05T08:30:19;3.85;;;3.45;;
10412;SDS011;5252;42.602;23.386;2022-08-05T08:32:45;3.92;;;3.53;;
10412;SDS011;5252;42.602;23.386;2022-08-05T08:35:12;4.20;;;3.33;;
10412;SDS011;5252;42.602;23.386;2022-08-05T08:37:38;4.65;;;3.65;;
10412;SDS011;5252;42.602;23.386;2022-08-05T08:40:07;4.35;;;3.17;;
10412;SDS011;5252;42.602;23.386;2022-08-05T08:42:33;3.42;;;3.17;;
10412;SDS011;5252;42.602;23.386;2022-08-05T08:45:01;3.30;;;3.00;;
10412;SDS011;5252;42.602;23.386;2022-08-05T08:47:28;4.88;;;3.40;;
10412;SDS011;5252;42.602;23.386;2022-08-05T08:49:56;7.90;;;3.28;;
10412;SDS011;5252;42.602;23.386;2022-08-05T08:52:23;2.97;;;2.70;;
10412;SDS011;5252;42.602;23.386;2022-08-05T08:54:50;3.03;;;2.72;;
10412;SDS011;5252;42.602;23.386;2022-08-05T08:57:19;2.90;;;2.70;;
10412;SDS011;5252;42.602;23.386;2022-08-05T08:59:45;3.40;;;2.63;;
10412;SDS011;5252;42.602;23.386;2022-08-05T09:02:12;2.88;;;2.67;;
10412;SDS011;5252;42.602;23.386;2022-08-05T09:04:39;3.08;;;2.80;;
10412;SDS011;5252;42.602;23.386;2022-08-05T09:07:06;4.78;;;3.08;;
10412;SDS011;5252;42.602;23.386;2022-08-05T09:09:33;4.18;;;2.90;;
10412;SDS011;5252;42.602;23.386;2022-08-05T09:12:00;3.80;;;2.85;;
10412;SDS011;5252;42.602;23.386;2022-08-05T09:14:28;2.65;;;2.45;;
10412;SDS011;5252;42.602;23.386;2022-08-05T09:16:56;3.63;;;2.45;;
10412;SDS011;5252;42.602;23.386;2022-08-05T09:19:23;2.10;;;1.90;;
10412;SDS011;5252;42.602;23.386;2022-08-05T09:21:49;3.22;;;2.38;;
10412;SDS011;5252;42.602;23.386;2022-08-05T09:24:16;2.72;;;2.15;;
10412;SDS011;5252;42.602;23.386;2022-08-05T09:26:45;2.50;;;2.30;;
10412;SDS011;5252;42.602;23.386;2022-08-05T09:29:12;2.40;;;2.20;;
10412;SDS011;5252;42.602;23.386;2022-08-05T09:31:40;3.15;;;2.42;;
10412;SDS011;5252;42.602;23.386;2022-08-05T09:34:08;3.15;;;2.15;;
10412;SDS011;5252;42.602;23.386;2022-08-05T09:36:39;2.15;;;2.00;;
10412;SDS011;5252;42.602;23.386;2022-08-05T09:39:07;2.50;;;2.28;;
10412;SDS011;5252;42.602;23.386;2022-08-05T09:41:34;3.70;;;2.45;;
10412;SDS011;5252;42.602;23.386;2022-08-05T09:44:31;3.63;;;2.38;;
10412;SDS011;5252;42.602;23.386;2022-08-05T09:47:07;2.85;;;2.22;;
10412;SDS011;5252;42.602;23.386;2022-08-05T09:49:34;2.72;;;2.28;;
10412;SDS011;5252;42.602;23.386;2022-08-05T09:52:15;2.88;;;2.58;;
10412;SDS011;5252;42.602;23.386;2022-08-05T09:54:48;3.03;;;2.22;;
10412;SDS011;5252;42.602;23.386;2022-08-05T09:57:27;2.97;;;2.38;;
10412;SDS011;5252;42.602;23.386;2022-08-05T09:59:55;4.18;;;2.65;;
10412;SDS011;5252;42.602;23.386;2022-08-05T10:02:33;5.03;;;2.60;;
10412;SDS011;5252;42.602;23.386;2022-08-05T10:05:07;2.88;;;2.67;;
10412;SDS011;5252;42.602;23.386;2022-08-05T10:07:45;3.83;;;2.88;;
10412;SDS011;5252;42.602;23.386;2022-08-05T10:10:12;2.78;;;2.58;;
10412;SDS011;5252;42.602;23.386;2022-08-05T10:12:39;3.00;;;2.67;;
10412;SDS011;5252;42.602;23.386;2022-08-05T10:15:12;3.45;;;3.15;;
10412;SDS011;5252;42.602;23.386;2022-08-05T10:17:41;2.75;;;2.55;;
10412;SDS011;5252;42.602;23.386;2022-08-05T10:20:10;3.80;;;2.55;;
10412;SDS011;5252;42.602;23.386;2022-08-05T10:22:38;3.33;;;2.78;;
10412;SDS011;5252;42.602;23.386;2022-08-05T10:25:05;2.83;;;2.63;;
10412;SDS011;5252;42.602;23.386;2022-08-05T10:27:31;4.43;;;2.50;;
10412;SDS011;5252;42.602;23.386;2022-08-05T10:29:59;2.95;;;2.55;;
10412;SDS011;5252;42.602;23.386;2022-08-05T10:32:25;2.90;;;2.70;;
10412;SDS011;5252;42.602;23.386;2022-08-05T10:34:53;5.65;;;2.83;;
10412;SDS011;5252;42.602;23.386;2022-08-05T10:37:22;5.38;;;2.38;;
10412;SDS011;5252;42.602;23.386;2022-08-05T10:39:49;2.85;;;2.65;;
10412;SDS011;5252;42.602;23.386;2022-08-05T10:42:20;4.65;;;2.67;;
10412;SDS011;5252;42.602;23.386;2022-08-05T10:44:47;3.55;;;3.25;;
10412;SDS011;5252;42.602;23.386;2022-08-05T10:47:14;3.60;;;2.65;;
10412;SDS011;5252;42.602;23.386;2022-08-05T10:52:37;3.47;;;2.83;;
10412;SDS011;5252;42.602;23.386;2022-08-05T10:55:05;3.42;;;2.70;;
10412;SDS011;5252;42.602;23.386;2022-08-05T10:57:32;3.15;;;2.60;;
10412;SDS011;5252;42.602;23.386;2022-08-05T11:00:09;2.85;;;2.45;;
10412;SDS011;5252;42.602;23.386;2022-08-05T11:02:36;2.90;;;2.70;;
10412;SDS011;5252;42.602;23.386;2022-08-05T11:05:04;4.65;;;2.88;;
10412;SDS011;5252;42.602;23.386;2022-08-05T11:07:31;4.72;;;2.70;;
10412;SDS011;5252;42.602;23.386;2022-08-05T11:10:00;3.15;;;2.85;;
10412;SDS011;5252;42.602;23.386;2022-08-05T11:12:42;3.75;;;2.60;;
10412;SDS011;5252;42.602;23.386;2022-08-05T11:15:18;3.15;;;2.75;;
10412;SDS011;5252;42.602;23.386;2022-08-05T11:17:45;4.22;;;2.50;;
10412;SDS011;5252;42.602;23.386;2022-08-05T11:20:35;4.05;;;2.60;;
10412;SDS011;5252;42.602;23.386;2022-08-05T11:26:00;3.17;;;2.88;;
10412;SDS011;5252;42.602;23.386;2022-08-05T11:28:36;4.53;;;2.83;;
10412;SDS011;5252;42.602;23.386;2022-08-05T11:31:22;3.25;;;2.90;;
10412;SDS011;5252;42.602;23.386;2022-08-05T11:33:52;2.80;;;2.60;;
10412;SDS011;5252;42.602;23.386;2022-08-05T11:36:20;2.80;;;2.60;;
10412;SDS011;5252;42.602;23.386;2022-08-05T11:38:50;2.85;;;2.58;;
10412;SDS011;5252;42.602;23.386;2022-08-05T11:41:21;3.53;;;2.58;;
10412;SDS011;5252;42.602;23.386;2022-08-05T11:43:55;3.72;;;2.70;;
10412;SDS011;5252;42.602;23.386;2022-08-05T11:46:24;4.78;;;4.38;;
10412;SDS011;5252;42.602;23.386;2022-08-05T11:48:51;2.65;;;2.45;;
10412;SDS011;5252;42.602;23.386;2022-08-05T11:51:18;3.42;;;2.47;;
10412;SDS011;5252;42.602;23.386;2022-08-05T11:53:44;5.55;;;2.70;;
10412;SDS011;5252;42.602;23.386;2022-08-05T11:56:11;6.47;;;2.85;;
10412;SDS011;5252;42.602;23.386;2022-08-05T11:58:41;3.47;;;2.80;;
10412;SDS011;5252;42.602;23.386;2022-08-05T12:01:08;5.47;;;2.90;;
10412;SDS011;5252;42.602;23.386;2022-08-05T12:03:42;2.92;;;2.60;;
10412;SDS011;5252;42.602;23.386;2022-08-05T12:06:09;2.70;;;2.50;;
10412;SDS011;5252;42.602;23.386;2022-08-05T12:08:39;2.95;;;2.63;;
10412;SDS011;5252;42.602;23.386;2022-08-05T12:11:07;3.55;;;2.60;;
10412;SDS011;5252;42.602;23.386;2022-08-05T12:13:33;3.05;;;2.75;;
10412;SDS011;5252;42.602;23.386;2022-08-05T12:16:02;3.78;;;2.58;;
10412;SDS011;5252;42.602;23.386;2022-08-05T12:18:31;2.60;;;2.40;;
10412;SDS011;5252;42.602;23.386;2022-08-05T12:21:07;2.63;;;2.30;;
10412;SDS011;5252;42.602;23.386;2022-08-05T12:23:33;2.78;;;2.50;;
10412;SDS011;5252;42.602;23.386;2022-08-05T12:26:00;2.75;;;2.20;;
10412;SDS011;5252;42.602;23.386;2022-08-05T12:28:33;2.83;;;2.53;;
10412;SDS011;5252;42.602;23.386;2022-08-05T12:31:02;2.97;;;2.60;;
10412;SDS011;5252;42.602;23.386;2022-08-05T12:33:28;3.15;;;2.40;;
10412;SDS011;5252;42.602;23.386;2022-08-05T12:35:55;3.38;;;2.75;;
10412;SDS011;5252;42.602;23.386;2022-08-05T12:38:22;3.28;;;2.72;;
10412;SDS011;5252;42.602;23.386;2022-08-05T12:40:49;3.42;;;3.05;;
10412;SDS011;5252;42.602;23.386;2022-08-05T12:43:16;3.70;;;3.00;;
10412;SDS011;5252;42.602;23.386;2022-08-05T12:45:49;3.45;;;2.90;;
10412;SDS011;5252;42.602;23.386;2022-08-05T12:48:17;2.83;;;2.63;;
10412;SDS011;5252;42.602;23.386;2022-08-05T12:53:27;3.40;;;3.10;;
10412;SDS011;5252;42.602;23.386;2022-08-05T12:55:54;3.70;;;2.90;;
10412;SDS011;5252;42.602;23.386;2022-08-05T12:58:22;5.25;;;3.20;;
10412;SDS011;5252;42.602;23.386;2022-08-05T13:00:49;4.20;;;3.30;;
10412;SDS011;5252;42.602;23.386;2022-08-05T13:03:17;4.15;;;3.20;;
10412;SDS011;5252;42.602;23.386;2022-08-05T13:05:45;3.10;;;2.83;;
10412;SDS011;5252;42.602;23.386;2022-08-05T13:08:12;3.10;;;2.90;;
10412;SDS011;5252;42.602;23.386;2022-08-05T13:10:42;3.47;;;2.97;;
10412;SDS011;5252;42.602;23.386;2022-08-05T13:13:08;4.47;;;3.10;;
10412;SDS011;5252;42.602;23.386;2022-08-05T13:15:35;3.85;;;3.30;;
10412;SDS011;5252;42.602;23.386;2022-08-05T13:18:05;3.20;;;3.00;;
10412;SDS011;5252;42.602;23.386;2022-08-05T13:20:36;3.60;;;3.30;;
10412;SDS011;5252;42.602;23.386;2022-08-05T13:23:02;3.53;;;3.22;;
10412;SDS011;5252;42.602;23.386;2022-08-05T13:25:29;4.07;;;3.30;;
10412;SDS011;5252;42.602;23.386;2022-08-05T13:27:55;5.55;;;2.97;;
10412;SDS011;5252;42.602;23.386;2022-08-05T13:30:22;3.30;;;3.00;;
10412;SDS011;5252;42.602;23.386;2022-08-05T13:32:50;2.90;;;2.70;;
10412;SDS011;5252;42.602;23.386;2022-08-05T13:35:16;3.17;;;2.88;;
10412;SDS011;5252;42.602;23.386;2022-08-05T13:37:45;3.63;;;3.00;;
10412;SDS011;5252;42.602;23.386;2022-08-05T13:40:12;3.63;;;3.30;;
10412;SDS011;5252;42.602;23.386;2022-08-05T13:42:39;3.35;;;2.80;;
10412;SDS011;5252;42.602;23.386;2022-08-05T13:45:06;3.00;;;2.70;;
10412;SDS011;5252;42.602;23.386;2022-08-05T13:47:33;4.32;;;2.63;;
10412;SDS011;5252;42.602;23.386;2022-08-05T13:50:01;3.05;;;2.50;;
10412;SDS011;5252;42.602;23.386;2022-08-05T13:52:29;2.70;;;2.50;;
10412;SDS011;5252;42.602;23.386;2022-08-05T13:54:57;5.00;;;2.63;;
10412;SDS011;5252;42.602;23.386;2022-08-05T13:57:24;2.70;;;2.50;;
10412;SDS011;5252;42.602;23.386;2022-08-05T13:59:50;2.60;;;2.40;;
10412;SDS011;5252;42.602;23.386;2022-08-05T14:02:17;4.80;;;2.67;;
10412;SDS011;5252;42.602;23.386;2022-08-05T14:04:44;3.58;;;3.13;;
10412;SDS011;5252;42.602;23.386;2022-08-05T14:07:29;3.85;;;2.85;;
10412;SDS011;5252;42.602;23.386;2022-08-05T14:09:58;4.63;;;3.20;;
10412;SDS011;5252;42.602;23.386;2022-08-05T14:12:24;5.93;;;3.25;;
10412;SDS011;5252;42.602;23.386;2022-08-05T14:14:51;4.20;;;2.92;;
10412;SDS011;5252;42.602;23.386;2022-08-05T14:17:18;3.80;;;2.90;;
10412;SDS011;5252;42.602;23.386;2022-08-05T14:19:47;4.03;;;2.80;;
10412;SDS011;5252;42.602;23.386;2022-08-05T14:22:14;3.58;;;2.83;;
10412;SDS011;5252;42.602;23.386;2022-08-05T14:24:40;3.72;;;2.75;;
10412;SDS011;5252;42.602;23.386;2022-08-05T14:27:08;4.22;;;2.75;;
10412;SDS011;5252;42.602;23.386;2022-08-05T14:29:35;3.13;;;2.72;;
10412;SDS011;5252;42.602;23.386;2022-08-05T14:32:01;4.10;;;2.58;;
10412;SDS011;5252;42.602;23.386;2022-08-05T14:34:28;5.40;;;2.55;;
10412;SDS011;5252;42.602;23.386;2022-08-05T14:36:55;3.08;;;2.70;;
10412;SDS011;5252;42.602;23.386;2022-08-05T14:39:21;2.75;;;2.45;;
10412;SDS011;5252;42.602;23.386;2022-08-05T14:41:48;2.83;;;2.60;;
10412;SDS011;5252;42.602;23.386;2022-08-05T14:44:16;2.60;;;2.40;;
10412;SDS011;5252;42.602;23.386;2022-08-05T14:46:43;2.97;;;2.35;;
10412;SDS011;5252;42.602;23.386;2022-08-05T14:49:09;2.90;;;2.60;;
10412;SDS011;5252;42.602;23.386;2022-08-05T14:51:37;3.78;;;2.60;;
10412;SDS011;5252;42.602;23.386;2022-08-05T14:54:03;3.00;;;2.70;;
10412;SDS011;5252;42.602;23.386;2022-08-05T14:56:30;3.13;;;2.65;;
10412;SDS011;5252;42.602;23.386;2022-08-05T14:58:57;2.78;;;2.50;;
10412;SDS011;5252;42.602;23.386;2022-08-05T15:01:25;2.60;;;2.40;;
10412;SDS011;5252;42.602;23.386;2022-08-05T15:03:51;2.40;;;2.20;;